sensor_id;sensor_type;location;lat;lon;timestamp;P1;durP1;ratioP1;P2;durP2;ratioP2
60867;SDS011;46702;48.370;10.794;2023-11-21T00:02:15;4.93;;;2.17;;
60867;SDS011;46702;48.370;10.794;2023-11-21T00:04:52;4.25;;;1.60;;
60867;SDS011;46702;48.370;10.794;2023-11-21T00:07:21;6.45;;;1.75;;
60867;SDS011;46702;48.370;10.794;2023-11-21T00:09:46;2.78;;;1.70;;
60867;SDS011;46702;48.370;10.794;2023-11-21T00:12:13;6.18;;;1.40;;
60867;SDS011;46702;48.370;10.794;2023-11-21T00:14:41;3.28;;;1.25;;
60867;SDS011;46702;48.370;10.794;2023-11-21T00:17:07;2.70;;;1.63;;
60867;SDS011;46702;48.370;10.794;2023-11-21T00:19:33;1.88;;;1.20;;
60867;SDS011;46702;48.370;10.794;2023-11-21T00:22:02;2.28;;;1.23;;
60867;SDS011;46702;48.370;10.794;2023-11-21T00:24:28;3.95;;;1.52;;
60867;SDS011;46702;48.370;10.794;2023-11-21T00:27:03;4.63;;;1.67;;
60867;SDS011;46702;48.370;10.794;2023-11-21T00:29:30;3.42;;;1.10;;
60867;SDS011;46702;48.370;10.794;2023-11-21T00:31:55;1.98;;;1.10;;
60867;SDS011;46702;48.370;10.794;2023-11-21T00:34:21;2.42;;;1.30;;
60867;SDS011;46702;48.370;10.794;2023-11-21T00:36:49;5.53;;;1.40;;
60867;SDS011;46702;48.370;10.794;2023-11-21T00:39:15;4.22;;;1.58;;
60867;SDS011;46702;48.370;10.794;2023-11-21T00:41:43;4.95;;;1.65;;
60867;SDS011;46702;48.370;10.794;2023-11-21T00:44:10;1.40;;;1.33;;
60867;SDS011;46702;48.370;10.794;2023-11-21T00:46:36;2.15;;;1.40;;
60867;SDS011;46702;48.370;10.794;2023-11-21T00:49:02;5.65;;;1.10;;
60867;SDS011;46702;48.370;10.794;2023-11-21T00:51:29;3.00;;;1.48;;
60867;SDS011;46702;48.370;10.794;2023-11-21T00:53:55;2.28;;;1.00;;
60867;SDS011;46702;48.370;10.794;2023-11-21T00:56:21;3.42;;;1.40;;
60867;SDS011;46702;48.370;10.794;2023-11-21T00:58:49;3.22;;;1.20;;
60867;SDS011;46702;48.370;10.794;2023-11-21T01:01:17;2.67;;;1.17;;
60867;SDS011;46702;48.370;10.794;2023-11-21T01:03:48;1.60;;;1.20;;
60867;SDS011;46702;48.370;10.794;2023-11-21T01:06:14;1.33;;;1.20;;
60867;SDS011;46702;48.370;10.794;2023-11-21T01:08:40;2.83;;;1.00;;
60867;SDS011;46702;48.370;10.794;2023-11-21T01:11:06;1.45;;;0.90;;
60867;SDS011;46702;48.370;10.794;2023-11-21T01:13:37;2.35;;;1.27;;
60867;SDS011;46702;48.370;10.794;2023-11-21T01:16:06;3.92;;;1.30;;
60867;SDS011;46702;48.370;10.794;2023-11-21T01:18:32;5.15;;;1.40;;
60867;SDS011;46702;48.370;10.794;2023-11-21T01:20:58;1.35;;;1.00;;
60867;SDS011;46702;48.370;10.794;2023-11-21T01:23:27;1.63;;;1.10;;
60867;SDS011;46702;48.370;10.794;2023-11-21T01:25:53;3.10;;;1.38;;
60867;SDS011;46702;48.370;10.794;2023-11-21T01:28:20;4.00;;;1.20;;
60867;SDS011;46702;48.370;10.794;2023-11-21T01:30:46;2.67;;;1.00;;
60867;SDS011;46702;48.370;10.794;2023-11-21T01:33:12;1.67;;;1.42;;
60867;SDS011;46702;48.370;10.794;2023-11-21T01:35:40;2.67;;;1.00;;
60867;SDS011;46702;48.370;10.794;2023-11-21T01:38:09;2.55;;;1.00;;
60867;SDS011;46702;48.370;10.794;2023-11-21T01:40:35;5.38;;;1.50;;
60867;SDS011;46702;48.370;10.794;2023-11-21T01:43:01;1.15;;;1.10;;
60867;SDS011;46702;48.370;10.794;2023-11-21T01:45:29;2.67;;;1.23;;
60867;SDS011;46702;48.370;10.794;2023-11-21T01:47:58;8.00;;;1.50;;
60867;SDS011;46702;48.370;10.794;2023-11-21T01:50:25;2.83;;;1.35;;
60867;SDS011;46702;48.370;10.794;2023-11-21T01:52:51;4.03;;;1.08;;
60867;SDS011;46702;48.370;10.794;2023-11-21T01:55:18;2.60;;;1.30;;
60867;SDS011;46702;48.370;10.794;2023-11-21T01:57:44;3.42;;;1.17;;
60867;SDS011;46702;48.370;10.794;2023-11-21T02:00:11;1.60;;;1.20;;
60867;SDS011;46702;48.370;10.794;2023-11-21T02:02:47;3.30;;;1.27;;
60867;SDS011;46702;48.370;10.794;2023-11-21T02:05:16;1.48;;;0.95;;
60867;SDS011;46702;48.370;10.794;2023-11-21T02:07:46;2.75;;;1.38;;
60867;SDS011;46702;48.370;10.794;2023-11-21T02:10:17;3.90;;;1.48;;
60867;SDS011;46702;48.370;10.794;2023-11-21T02:12:47;3.25;;;1.08;;
60867;SDS011;46702;48.370;10.794;2023-11-21T02:15:16;1.65;;;1.23;;
60867;SDS011;46702;48.370;10.794;2023-11-21T02:17:46;3.22;;;1.15;;
60867;SDS011;46702;48.370;10.794;2023-11-21T02:20:16;3.33;;;1.35;;
60867;SDS011;46702;48.370;10.794;2023-11-21T02:22:43;2.10;;;1.10;;
60867;SDS011;46702;48.370;10.794;2023-11-21T02:25:13;2.85;;;1.10;;
60867;SDS011;46702;48.370;10.794;2023-11-21T02:27:39;1.45;;;1.10;;
60867;SDS011;46702;48.370;10.794;2023-11-21T02:30:05;1.30;;;1.20;;
60867;SDS011;46702;48.370;10.794;2023-11-21T02:32:32;2.30;;;1.20;;
60867;SDS011;46702;48.370;10.794;2023-11-21T02:34:59;1.95;;;1.80;;
60867;SDS011;46702;48.370;10.794;2023-11-21T02:37:26;5.90;;;1.40;;
60867;SDS011;46702;48.370;10.794;2023-11-21T02:39:52;4.95;;;1.35;;
60867;SDS011;46702;48.370;10.794;2023-11-21T02:42:18;2.60;;;1.10;;
60867;SDS011;46702;48.370;10.794;2023-11-21T02:44:46;1.25;;;1.15;;
60867;SDS011;46702;48.370;10.794;2023-11-21T02:47:12;2.00;;;1.13;;
60867;SDS011;46702;48.370;10.794;2023-11-21T02:49:38;2.47;;;1.00;;
60867;SDS011;46702;48.370;10.794;2023-11-21T02:52:04;3.15;;;1.45;;
60867;SDS011;46702;48.370;10.794;2023-11-21T02:54:30;3.15;;;1.30;;
60867;SDS011;46702;48.370;10.794;2023-11-21T02:56:56;2.63;;;1.35;;
60867;SDS011;46702;48.370;10.794;2023-11-21T02:59:21;1.08;;;1.08;;
60867;SDS011;46702;48.370;10.794;2023-11-21T03:01:47;1.65;;;1.08;;
60867;SDS011;46702;48.370;10.794;2023-11-21T03:04:14;3.45;;;1.02;;
60867;SDS011;46702;48.370;10.794;2023-11-21T03:06:43;2.40;;;1.38;;
60867;SDS011;46702;48.370;10.794;2023-11-21T03:09:09;2.78;;;1.50;;
60867;SDS011;46702;48.370;10.794;2023-11-21T03:11:37;3.95;;;1.30;;
60867;SDS011;46702;48.370;10.794;2023-11-21T03:14:03;1.70;;;1.23;;
60867;SDS011;46702;48.370;10.794;2023-11-21T03:16:30;1.83;;;1.20;;
60867;SDS011;46702;48.370;10.794;2023-11-21T03:18:57;3.22;;;1.67;;
60867;SDS011;46702;48.370;10.794;2023-11-21T03:21:22;5.00;;;1.73;;
60867;SDS011;46702;48.370;10.794;2023-11-21T03:23:48;1.55;;;1.17;;
60867;SDS011;46702;48.370;10.794;2023-11-21T03:26:14;2.75;;;1.35;;
60867;SDS011;46702;48.370;10.794;2023-11-21T03:28:39;3.95;;;1.33;;
60867;SDS011;46702;48.370;10.794;2023-11-21T03:31:05;1.20;;;1.10;;
60867;SDS011;46702;48.370;10.794;2023-11-21T03:33:34;1.27;;;1.17;;
60867;SDS011;46702;48.370;10.794;2023-11-21T03:36:00;1.88;;;1.00;;
60867;SDS011;46702;48.370;10.794;2023-11-21T03:38:26;1.15;;;1.13;;
60867;SDS011;46702;48.370;10.794;2023-11-21T03:40:52;2.35;;;1.10;;
60867;SDS011;46702;48.370;10.794;2023-11-21T03:43:18;2.60;;;1.30;;
60867;SDS011;46702;48.370;10.794;2023-11-21T03:45:44;3.72;;;1.15;;
60867;SDS011;46702;48.370;10.794;2023-11-21T03:48:09;1.75;;;1.30;;
60867;SDS011;46702;48.370;10.794;2023-11-21T03:50:37;1.80;;;1.23;;
60867;SDS011;46702;48.370;10.794;2023-11-21T03:53:03;2.03;;;1.20;;
60867;SDS011;46702;48.370;10.794;2023-11-21T03:55:29;2.17;;;1.02;;
60867;SDS011;46702;48.370;10.794;2023-11-21T03:57:56;1.48;;;1.10;;
60867;SDS011;46702;48.370;10.794;2023-11-21T04:00:22;4.80;;;1.20;;
60867;SDS011;46702;48.370;10.794;2023-11-21T04:02:48;2.95;;;1.20;;
60867;SDS011;46702;48.370;10.794;2023-11-21T04:05:16;1.38;;;1.15;;
60867;SDS011;46702;48.370;10.794;2023-11-21T04:07:42;1.92;;;1.48;;
60867;SDS011;46702;48.370;10.794;2023-11-21T04:10:08;2.60;;;1.10;;
60867;SDS011;46702;48.370;10.794;2023-11-21T04:12:37;1.92;;;0.88;;
60867;SDS011;46702;48.370;10.794;2023-11-21T04:15:03;0.93;;;0.93;;
60867;SDS011;46702;48.370;10.794;2023-11-21T04:17:28;1.00;;;1.00;;
60867;SDS011;46702;48.370;10.794;2023-11-21T04:19:54;3.83;;;0.98;;
60867;SDS011;46702;48.370;10.794;2023-11-21T04:22:20;3.90;;;1.15;;
60867;SDS011;46702;48.370;10.794;2023-11-21T04:24:46;1.15;;;0.98;;
60867;SDS011;46702;48.370;10.794;2023-11-21T04:27:11;3.70;;;1.67;;
60867;SDS011;46702;48.370;10.794;2023-11-21T04:29:38;1.60;;;1.10;;
60867;SDS011;46702;48.370;10.794;2023-11-21T04:32:03;1.33;;;1.10;;
60867;SDS011;46702;48.370;10.794;2023-11-21T04:34:30;5.28;;;1.10;;
60867;SDS011;46702;48.370;10.794;2023-11-21T04:36:56;1.45;;;1.45;;
60867;SDS011;46702;48.370;10.794;2023-11-21T04:39:22;2.35;;;1.00;;
60867;SDS011;46702;48.370;10.794;2023-11-21T04:41:48;0.80;;;0.80;;
60867;SDS011;46702;48.370;10.794;2023-11-21T04:44:15;1.77;;;0.90;;
60867;SDS011;46702;48.370;10.794;2023-11-21T04:46:41;1.85;;;1.00;;
60867;SDS011;46702;48.370;10.794;2023-11-21T04:49:07;1.10;;;0.90;;
60867;SDS011;46702;48.370;10.794;2023-11-21T04:51:32;3.70;;;1.10;;
60867;SDS011;46702;48.370;10.794;2023-11-21T04:53:58;1.65;;;1.10;;
60867;SDS011;46702;48.370;10.794;2023-11-21T04:56:24;1.60;;;0.82;;
60867;SDS011;46702;48.370;10.794;2023-11-21T04:58:50;2.22;;;0.90;;
60867;SDS011;46702;48.370;10.794;2023-11-21T05:01:15;1.10;;;1.05;;
60867;SDS011;46702;48.370;10.794;2023-11-21T05:03:41;2.38;;;1.05;;
60867;SDS011;46702;48.370;10.794;2023-11-21T05:06:09;1.08;;;0.77;;
60867;SDS011;46702;48.370;10.794;2023-11-21T05:11:02;1.15;;;1.08;;
60867;SDS011;46702;48.370;10.794;2023-11-21T05:13:27;1.25;;;0.90;;
60867;SDS011;46702;48.370;10.794;2023-11-21T05:15:56;0.90;;;0.90;;
60867;SDS011;46702;48.370;10.794;2023-11-21T05:18:22;3.05;;;1.05;;
60867;SDS011;46702;48.370;10.794;2023-11-21T05:20:48;3.47;;;1.17;;
60867;SDS011;46702;48.370;10.794;2023-11-21T05:23:13;1.95;;;1.10;;
60867;SDS011;46702;48.370;10.794;2023-11-21T05:25:39;1.02;;;1.00;;
60867;SDS011;46702;48.370;10.794;2023-11-21T05:28:06;2.35;;;1.30;;
60867;SDS011;46702;48.370;10.794;2023-11-21T05:30:32;1.00;;;0.90;;
60867;SDS011;46702;48.370;10.794;2023-11-21T05:32:57;2.40;;;1.30;;
60867;SDS011;46702;48.370;10.794;2023-11-21T05:35:23;1.63;;;1.50;;
60867;SDS011;46702;48.370;10.794;2023-11-21T05:37:48;2.60;;;1.90;;
60867;SDS011;46702;48.370;10.794;2023-11-21T05:40:14;2.70;;;1.85;;
60867;SDS011;46702;48.370;10.794;2023-11-21T05:42:40;2.00;;;1.90;;
60867;SDS011;46702;48.370;10.794;2023-11-21T05:45:06;3.97;;;2.10;;
60867;SDS011;46702;48.370;10.794;2023-11-21T05:47:45;2.97;;;1.80;;
60867;SDS011;46702;48.370;10.794;2023-11-21T05:50:12;1.60;;;1.50;;
60867;SDS011;46702;48.370;10.794;2023-11-21T05:52:43;1.55;;;1.42;;
60867;SDS011;46702;48.370;10.794;2023-11-21T05:55:09;3.55;;;1.23;;
60867;SDS011;46702;48.370;10.794;2023-11-21T05:57:36;3.20;;;1.20;;
60867;SDS011;46702;48.370;10.794;2023-11-21T06:00:06;1.20;;;1.20;;
60867;SDS011;46702;48.370;10.794;2023-11-21T06:02:37;1.90;;;1.38;;
60867;SDS011;46702;48.370;10.794;2023-11-21T06:05:03;3.97;;;1.42;;
60867;SDS011;46702;48.370;10.794;2023-11-21T06:07:29;2.47;;;1.40;;
60867;SDS011;46702;48.370;10.794;2023-11-21T06:09:55;1.50;;;1.40;;
60867;SDS011;46702;48.370;10.794;2023-11-21T06:12:21;1.60;;;1.50;;
60867;SDS011;46702;48.370;10.794;2023-11-21T06:14:46;3.40;;;1.60;;
60867;SDS011;46702;48.370;10.794;2023-11-21T06:17:13;3.03;;;1.60;;
60867;SDS011;46702;48.370;10.794;2023-11-21T06:19:38;2.22;;;1.40;;
60867;SDS011;46702;48.370;10.794;2023-11-21T06:22:05;4.13;;;1.70;;
60867;SDS011;46702;48.370;10.794;2023-11-21T06:24:31;3.53;;;1.63;;
60867;SDS011;46702;48.370;10.794;2023-11-21T06:26:57;3.75;;;1.65;;
60867;SDS011;46702;48.370;10.794;2023-11-21T06:29:22;10.55;;;2.13;;
60867;SDS011;46702;48.370;10.794;2023-11-21T06:31:48;5.85;;;2.95;;
60867;SDS011;46702;48.370;10.794;2023-11-21T06:34:16;3.25;;;2.08;;
60867;SDS011;46702;48.370;10.794;2023-11-21T06:36:42;7.18;;;3.03;;
60867;SDS011;46702;48.370;10.794;2023-11-21T06:39:08;3.15;;;2.05;;
60867;SDS011;46702;48.370;10.794;2023-11-21T06:41:34;6.68;;;3.03;;
60867;SDS011;46702;48.370;10.794;2023-11-21T06:43:59;3.38;;;2.22;;
60867;SDS011;46702;48.370;10.794;2023-11-21T06:46:34;4.93;;;1.85;;
60867;SDS011;46702;48.370;10.794;2023-11-21T06:49:00;2.83;;;1.50;;
60867;SDS011;46702;48.370;10.794;2023-11-21T06:51:25;2.15;;;1.83;;
60867;SDS011;46702;48.370;10.794;2023-11-21T06:53:51;2.47;;;1.45;;
60867;SDS011;46702;48.370;10.794;2023-11-21T06:56:17;2.65;;;1.45;;
60867;SDS011;46702;48.370;10.794;2023-11-21T06:58:44;1.67;;;1.30;;
60867;SDS011;46702;48.370;10.794;2023-11-21T07:01:11;5.22;;;1.40;;
60867;SDS011;46702;48.370;10.794;2023-11-21T07:03:40;5.78;;;1.55;;
60867;SDS011;46702;48.370;10.794;2023-11-21T07:06:06;3.10;;;1.77;;
60867;SDS011;46702;48.370;10.794;2023-11-21T07:08:32;1.40;;;1.30;;
60867;SDS011;46702;48.370;10.794;2023-11-21T07:10:58;1.13;;;1.10;;
60867;SDS011;46702;48.370;10.794;2023-11-21T07:13:24;2.60;;;1.55;;
60867;SDS011;46702;48.370;10.794;2023-11-21T07:15:49;2.25;;;1.15;;
60867;SDS011;46702;48.370;10.794;2023-11-21T07:18:15;1.42;;;1.30;;
60867;SDS011;46702;48.370;10.794;2023-11-21T07:20:40;1.88;;;1.40;;
60867;SDS011;46702;48.370;10.794;2023-11-21T07:23:06;3.10;;;1.67;;
60867;SDS011;46702;48.370;10.794;2023-11-21T07:25:32;3.30;;;1.70;;
60867;SDS011;46702;48.370;10.794;2023-11-21T07:28:02;1.90;;;1.80;;
60867;SDS011;46702;48.370;10.794;2023-11-21T07:30:30;3.35;;;1.70;;
60867;SDS011;46702;48.370;10.794;2023-11-21T07:32:56;4.45;;;2.08;;
60867;SDS011;46702;48.370;10.794;2023-11-21T07:35:21;1.67;;;1.50;;
60867;SDS011;46702;48.370;10.794;2023-11-21T07:37:47;2.20;;;1.63;;
60867;SDS011;46702;48.370;10.794;2023-11-21T07:40:14;1.88;;;1.50;;
60867;SDS011;46702;48.370;10.794;2023-11-21T07:42:42;1.38;;;1.20;;
60867;SDS011;46702;48.370;10.794;2023-11-21T07:45:08;1.38;;;1.30;;
60867;SDS011;46702;48.370;10.794;2023-11-21T07:47:36;1.75;;;1.33;;
60867;SDS011;46702;48.370;10.794;2023-11-21T07:50:04;1.30;;;1.27;;
60867;SDS011;46702;48.370;10.794;2023-11-21T07:52:30;1.48;;;1.40;;
60867;SDS011;46702;48.370;10.794;2023-11-21T07:54:55;0.90;;;0.90;;
60867;SDS011;46702;48.370;10.794;2023-11-21T07:57:21;0.85;;;0.85;;
60867;SDS011;46702;48.370;10.794;2023-11-21T07:59:47;1.33;;;1.25;;
60867;SDS011;46702;48.370;10.794;2023-11-21T08:02:12;1.13;;;1.02;;
60867;SDS011;46702;48.370;10.794;2023-11-21T08:04:38;1.85;;;0.93;;
60867;SDS011;46702;48.370;10.794;2023-11-21T08:07:03;0.82;;;0.82;;
60867;SDS011;46702;48.370;10.794;2023-11-21T08:09:29;1.00;;;1.00;;
60867;SDS011;46702;48.370;10.794;2023-11-21T08:11:55;1.02;;;1.02;;
60867;SDS011;46702;48.370;10.794;2023-11-21T08:14:21;2.45;;;1.10;;
60867;SDS011;46702;48.370;10.794;2023-11-21T08:19:16;0.77;;;0.77;;
60867;SDS011;46702;48.370;10.794;2023-11-21T08:21:43;0.80;;;0.80;;
60867;SDS011;46702;48.370;10.794;2023-11-21T08:24:09;0.90;;;0.80;;
60867;SDS011;46702;48.370;10.794;2023-11-21T08:26:35;2.20;;;1.20;;
60867;SDS011;46702;48.370;10.794;2023-11-21T08:29:01;0.60;;;0.60;;
60867;SDS011;46702;48.370;10.794;2023-11-21T08:31:27;0.73;;;0.70;;
60867;SDS011;46702;48.370;10.794;2023-11-21T08:33:54;1.33;;;0.90;;
60867;SDS011;46702;48.370;10.794;2023-11-21T08:36:23;1.85;;;1.00;;
60867;SDS011;46702;48.370;10.794;2023-11-21T08:38:50;1.15;;;1.02;;
60867;SDS011;46702;48.370;10.794;2023-11-21T08:41:17;1.45;;;0.90;;
60867;SDS011;46702;48.370;10.794;2023-11-21T08:43:47;2.30;;;1.10;;
60867;SDS011;46702;48.370;10.794;2023-11-21T08:46:15;1.17;;;1.08;;
60867;SDS011;46702;48.370;10.794;2023-11-21T08:48:42;0.80;;;0.80;;
60867;SDS011;46702;48.370;10.794;2023-11-21T08:51:09;1.23;;;0.90;;
60867;SDS011;46702;48.370;10.794;2023-11-21T08:53:36;2.90;;;1.15;;
60867;SDS011;46702;48.370;10.794;2023-11-21T08:56:03;1.10;;;1.00;;
60867;SDS011;46702;48.370;10.794;2023-11-21T08:58:29;1.63;;;1.20;;
60867;SDS011;46702;48.370;10.794;2023-11-21T09:00:56;2.60;;;1.42;;
60867;SDS011;46702;48.370;10.794;2023-11-21T09:03:21;0.77;;;0.77;;
60867;SDS011;46702;48.370;10.794;2023-11-21T09:05:47;2.05;;;1.05;;
60867;SDS011;46702;48.370;10.794;2023-11-21T09:08:16;1.63;;;0.82;;
60867;SDS011;46702;48.370;10.794;2023-11-21T09:10:42;1.30;;;1.20;;
60867;SDS011;46702;48.370;10.794;2023-11-21T09:13:10;1.25;;;1.17;;
60867;SDS011;46702;48.370;10.794;2023-11-21T09:15:35;0.95;;;0.95;;
60867;SDS011;46702;48.370;10.794;2023-11-21T09:18:05;1.02;;;1.00;;
60867;SDS011;46702;48.370;10.794;2023-11-21T09:20:30;2.13;;;1.10;;
60867;SDS011;46702;48.370;10.794;2023-11-21T09:22:56;1.10;;;1.10;;
60867;SDS011;46702;48.370;10.794;2023-11-21T09:25:21;1.48;;;1.33;;
60867;SDS011;46702;48.370;10.794;2023-11-21T09:27:47;3.15;;;1.48;;
60867;SDS011;46702;48.370;10.794;2023-11-21T09:30:13;1.20;;;1.10;;
60867;SDS011;46702;48.370;10.794;2023-11-21T09:32:41;1.23;;;1.10;;
60867;SDS011;46702;48.370;10.794;2023-11-21T09:37:36;1.45;;;1.27;;
60867;SDS011;46702;48.370;10.794;2023-11-21T09:40:04;1.30;;;1.20;;
60867;SDS011;46702;48.370;10.794;2023-11-21T09:42:48;2.10;;;1.90;;
60867;SDS011;46702;48.370;10.794;2023-11-21T09:45:26;1.25;;;1.00;;
60867;SDS011;46702;48.370;10.794;2023-11-21T09:47:53;2.55;;;1.30;;
60867;SDS011;46702;48.370;10.794;2023-11-21T09:50:20;0.73;;;0.73;;
60867;SDS011;46702;48.370;10.794;2023-11-21T09:55:46;2.13;;;0.95;;
60867;SDS011;46702;48.370;10.794;2023-11-21T09:58:14;2.10;;;1.10;;
60867;SDS011;46702;48.370;10.794;2023-11-21T10:00:40;1.42;;;1.30;;
60867;SDS011;46702;48.370;10.794;2023-11-21T10:03:08;0.95;;;0.90;;
60867;SDS011;46702;48.370;10.794;2023-11-21T10:05:34;1.27;;;1.10;;
60867;SDS011;46702;48.370;10.794;2023-11-21T10:08:00;1.95;;;1.25;;
60867;SDS011;46702;48.370;10.794;2023-11-21T10:10:27;1.05;;;0.95;;
60867;SDS011;46702;48.370;10.794;2023-11-21T10:12:57;1.25;;;0.98;;
60867;SDS011;46702;48.370;10.794;2023-11-21T10:15:38;1.17;;;1.17;;
60867;SDS011;46702;48.370;10.794;2023-11-21T10:18:09;2.17;;;1.02;;
60867;SDS011;46702;48.370;10.794;2023-11-21T10:20:35;1.25;;;1.17;;
60867;SDS011;46702;48.370;10.794;2023-11-21T10:23:03;3.45;;;1.17;;
60867;SDS011;46702;48.370;10.794;2023-11-21T10:25:29;1.35;;;1.25;;
60867;SDS011;46702;48.370;10.794;2023-11-21T10:27:59;10.40;;;1.38;;
60867;SDS011;46702;48.370;10.794;2023-11-21T10:30:36;1.75;;;1.02;;
60867;SDS011;46702;48.370;10.794;2023-11-21T10:33:06;0.95;;;0.90;;
60867;SDS011;46702;48.370;10.794;2023-11-21T10:38:08;2.15;;;1.33;;
60867;SDS011;46702;48.370;10.794;2023-11-21T10:40:39;3.40;;;1.40;;
60867;SDS011;46702;48.370;10.794;2023-11-21T10:43:09;2.63;;;1.35;;
60867;SDS011;46702;48.370;10.794;2023-11-21T10:45:36;1.70;;;1.20;;
60867;SDS011;46702;48.370;10.794;2023-11-21T10:48:17;1.20;;;1.10;;
60867;SDS011;46702;48.370;10.794;2023-11-21T10:50:46;3.80;;;1.30;;
60867;SDS011;46702;48.370;10.794;2023-11-21T10:53:12;1.40;;;1.25;;
60867;SDS011;46702;48.370;10.794;2023-11-21T10:55:38;2.72;;;1.25;;
60867;SDS011;46702;48.370;10.794;2023-11-21T10:58:04;1.98;;;1.33;;
60867;SDS011;46702;48.370;10.794;2023-11-21T11:00:34;1.00;;;1.00;;
60867;SDS011;46702;48.370;10.794;2023-11-21T11:02:59;1.92;;;1.20;;
60867;SDS011;46702;48.370;10.794;2023-11-21T11:05:26;1.08;;;1.08;;
60867;SDS011;46702;48.370;10.794;2023-11-21T11:08:07;2.70;;;1.08;;
60867;SDS011;46702;48.370;10.794;2023-11-21T11:10:36;1.33;;;1.00;;
60867;SDS011;46702;48.370;10.794;2023-11-21T11:13:02;3.13;;;1.17;;
60867;SDS011;46702;48.370;10.794;2023-11-21T11:15:29;1.63;;;1.30;;
60867;SDS011;46702;48.370;10.794;2023-11-21T11:17:55;1.40;;;1.02;;
60867;SDS011;46702;48.370;10.794;2023-11-21T11:34:29;2.97;;;1.45;;
60867;SDS011;46702;48.370;10.794;2023-11-21T11:37:02;2.70;;;1.13;;
60867;SDS011;46702;48.370;10.794;2023-11-21T11:42:06;2.60;;;2.40;;
60867;SDS011;46702;48.370;10.794;2023-11-21T11:47:14;1.92;;;1.40;;
60867;SDS011;46702;48.370;10.794;2023-11-21T11:49:57;1.40;;;1.27;;
60867;SDS011;46702;48.370;10.794;2023-11-21T11:52:37;1.90;;;1.50;;
60867;SDS011;46702;48.370;10.794;2023-11-21T11:55:12;1.92;;;1.50;;
60867;SDS011;46702;48.370;10.794;2023-11-21T11:57:39;1.50;;;1.40;;
60867;SDS011;46702;48.370;10.794;2023-11-21T12:00:15;2.63;;;1.88;;
60867;SDS011;46702;48.370;10.794;2023-11-21T12:02:50;1.67;;;1.33;;
60867;SDS011;46702;48.370;10.794;2023-11-21T12:05:18;1.88;;;1.17;;
60867;SDS011;46702;48.370;10.794;2023-11-21T12:10:20;1.58;;;1.23;;
60867;SDS011;46702;48.370;10.794;2023-11-21T12:12:51;1.70;;;1.30;;
60867;SDS011;46702;48.370;10.794;2023-11-21T12:15:17;1.30;;;1.20;;
60867;SDS011;46702;48.370;10.794;2023-11-21T12:17:44;1.10;;;1.00;;
60867;SDS011;46702;48.370;10.794;2023-11-21T12:20:20;2.03;;;1.20;;
60867;SDS011;46702;48.370;10.794;2023-11-21T12:22:48;1.55;;;1.10;;
60867;SDS011;46702;48.370;10.794;2023-11-21T12:25:21;1.08;;;0.95;;
60867;SDS011;46702;48.370;10.794;2023-11-21T12:27:49;0.90;;;0.90;;
60867;SDS011;46702;48.370;10.794;2023-11-21T12:30:17;3.17;;;1.00;;
60867;SDS011;46702;48.370;10.794;2023-11-21T12:32:50;1.08;;;1.00;;
60867;SDS011;46702;48.370;10.794;2023-11-21T12:35:18;1.10;;;1.00;;
60867;SDS011;46702;48.370;10.794;2023-11-21T12:37:48;1.27;;;1.15;;
60867;SDS011;46702;48.370;10.794;2023-11-21T12:40:15;4.40;;;1.83;;
60867;SDS011;46702;48.370;10.794;2023-11-21T12:46:10;4.35;;;1.45;;
60867;SDS011;46702;48.370;10.794;2023-11-21T12:48:39;2.63;;;1.35;;
60867;SDS011;46702;48.370;10.794;2023-11-21T12:54:52;2.10;;;1.70;;
60867;SDS011;46702;48.370;10.794;2023-11-21T12:57:18;2.25;;;1.20;;
60867;SDS011;46702;48.370;10.794;2023-11-21T12:59:45;2.25;;;1.20;;
60867;SDS011;46702;48.370;10.794;2023-11-21T13:02:12;1.60;;;1.40;;
60867;SDS011;46702;48.370;10.794;2023-11-21T13:04:40;3.33;;;1.45;;
60867;SDS011;46702;48.370;10.794;2023-11-21T13:07:06;3.08;;;1.63;;
60867;SDS011;46702;48.370;10.794;2023-11-21T13:09:39;1.60;;;1.50;;
60867;SDS011;46702;48.370;10.794;2023-11-21T13:12:11;2.00;;;1.35;;
60867;SDS011;46702;48.370;10.794;2023-11-21T13:14:39;1.88;;;1.20;;
60867;SDS011;46702;48.370;10.794;2023-11-21T13:17:11;3.20;;;1.55;;
60867;SDS011;46702;48.370;10.794;2023-11-21T13:19:37;5.28;;;3.70;;
60867;SDS011;46702;48.370;10.794;2023-11-21T13:22:03;5.25;;;3.80;;
60867;SDS011;46702;48.370;10.794;2023-11-21T13:24:29;7.28;;;3.72;;
60867;SDS011;46702;48.370;10.794;2023-11-21T13:26:55;4.25;;;3.35;;
60867;SDS011;46702;48.370;10.794;2023-11-21T13:29:21;4.78;;;2.72;;
60867;SDS011;46702;48.370;10.794;2023-11-21T13:31:48;5.65;;;2.97;;
60867;SDS011;46702;48.370;10.794;2023-11-21T13:34:18;3.53;;;2.47;;
60867;SDS011;46702;48.370;10.794;2023-11-21T13:36:47;4.25;;;2.35;;
60867;SDS011;46702;48.370;10.794;2023-11-21T13:39:13;2.78;;;2.22;;
60867;SDS011;46702;48.370;10.794;2023-11-21T13:41:41;3.10;;;2.40;;
60867;SDS011;46702;48.370;10.794;2023-11-21T13:44:07;2.90;;;2.45;;
60867;SDS011;46702;48.370;10.794;2023-11-21T13:46:54;2.40;;;2.20;;
60867;SDS011;46702;48.370;10.794;2023-11-21T13:49:23;2.05;;;1.65;;
60867;SDS011;46702;48.370;10.794;2023-11-21T13:51:52;1.70;;;1.60;;
60867;SDS011;46702;48.370;10.794;2023-11-21T13:54:20;2.00;;;1.63;;
60867;SDS011;46702;48.370;10.794;2023-11-21T13:56:46;1.50;;;1.40;;
60867;SDS011;46702;48.370;10.794;2023-11-21T13:59:12;1.52;;;1.38;;
60867;SDS011;46702;48.370;10.794;2023-11-21T14:01:50;2.00;;;1.42;;
60867;SDS011;46702;48.370;10.794;2023-11-21T14:04:36;1.10;;;1.10;;
60867;SDS011;46702;48.370;10.794;2023-11-21T14:07:18;1.20;;;1.10;;
60867;SDS011;46702;48.370;10.794;2023-11-21T14:10:00;1.20;;;1.10;;
60867;SDS011;46702;48.370;10.794;2023-11-21T14:12:26;4.85;;;1.40;;
60867;SDS011;46702;48.370;10.794;2023-11-21T14:14:53;1.60;;;1.30;;
60867;SDS011;46702;48.370;10.794;2023-11-21T14:17:20;2.15;;;1.00;;
60867;SDS011;46702;48.370;10.794;2023-11-21T14:19:52;1.58;;;1.30;;
60867;SDS011;46702;48.370;10.794;2023-11-21T14:22:20;1.25;;;1.20;;
60867;SDS011;46702;48.370;10.794;2023-11-21T14:24:46;1.40;;;1.25;;
60867;SDS011;46702;48.370;10.794;2023-11-21T14:27:12;1.42;;;1.30;;
60867;SDS011;46702;48.370;10.794;2023-11-21T14:29:39;2.40;;;1.48;;
60867;SDS011;46702;48.370;10.794;2023-11-21T14:32:08;1.75;;;1.30;;
60867;SDS011;46702;48.370;10.794;2023-11-21T14:34:34;1.27;;;1.15;;
60867;SDS011;46702;48.370;10.794;2023-11-21T14:37:00;2.47;;;1.27;;
60867;SDS011;46702;48.370;10.794;2023-11-21T14:39:28;1.08;;;1.08;;
60867;SDS011;46702;48.370;10.794;2023-11-21T14:41:54;5.18;;;4.68;;
60867;SDS011;46702;48.370;10.794;2023-11-21T14:44:25;3.17;;;2.83;;
60867;SDS011;46702;48.370;10.794;2023-11-21T14:46:54;3.85;;;3.55;;
60867;SDS011;46702;48.370;10.794;2023-11-21T14:49:21;3.83;;;2.80;;
60867;SDS011;46702;48.370;10.794;2023-11-21T14:51:49;3.60;;;2.80;;
60867;SDS011;46702;48.370;10.794;2023-11-21T14:54:34;3.65;;;2.95;;
60867;SDS011;46702;48.370;10.794;2023-11-21T14:57:09;3.42;;;2.42;;
60867;SDS011;46702;48.370;10.794;2023-11-21T14:59:49;2.88;;;2.60;;
60867;SDS011;46702;48.370;10.794;2023-11-21T15:02:22;2.60;;;1.98;;
60867;SDS011;46702;48.370;10.794;2023-11-21T15:05:07;3.40;;;1.70;;
60867;SDS011;46702;48.370;10.794;2023-11-21T15:07:39;2.33;;;1.42;;
60867;SDS011;46702;48.370;10.794;2023-11-21T15:10:06;1.88;;;1.35;;
60867;SDS011;46702;48.370;10.794;2023-11-21T15:12:38;3.63;;;1.40;;
60867;SDS011;46702;48.370;10.794;2023-11-21T15:15:08;1.40;;;1.30;;
60867;SDS011;46702;48.370;10.794;2023-11-21T15:17:35;2.10;;;1.40;;
60867;SDS011;46702;48.370;10.794;2023-11-21T15:20:02;1.55;;;1.30;;